Carlock, IL (61725)

11:24 PM CDT on March 24, 2017 (GMT -0500)
MD9668 | | Change Station

Elev 803 ft 40.53 °N, 89.17 °W | Updated 7 minutes ago

Overcast
Overcast
60.0 °F
Feels Like 60.0 °F
N
0.0
Wind Variable Wind from NNW
Gusts 0.0 mph

Today
High -- | Low -- °F
--% Chance of Precip.
Yesterday
High -- | Low -- °F
Precip. -- in
Pressure 30.06 in
Visibility 10.0 miles
Clouds Mostly Cloudy 4000 ft
Overcast 8000 ft
Dew Point 52 °F
Humidity 75%
Rainfall 0.00 in
Snow Depth Not available.
6:52 AM 7:13 PM
Waning Crescent, 11% visible
METAR KBMI 250356Z AUTO 03007KT 10SM BKN040 OVC080 16/10 A3001 RMK AO2 SLP179 T01610100
Pressure 30.06 in
Visibility 10.0 miles
Clouds Mostly Cloudy 4000 ft
Overcast 8000 ft
Dew Point 52 °F
Humidity 75%
Rainfall 0.00 in
Snow Depth Not available.
6:52 AM 7:13 PM
Waning Crescent, 11% visible
METAR KBMI 250356Z AUTO 03007KT 10SM BKN040 OVC080 16/10 A3001 RMK AO2 SLP179 T01610100

Get Severe Weather Alerts

Thanks for signing up!

Be on the lookout for a verification email in your inbox.

You'll start receiving the daily forecast at 8 AM.

×

10-Day Weather Forecast

Almanac

Astronomy

Mar. 24, 2017 Rise Set
Actual Time
Civil Twilight
Nautical Twilight
Astronomical Twilight
Moon
Length of Visible Light
Length of Day
Tomorrow will be .
, % of the Moon is Illuminated

Today's Extremes

State Highs State Lows

Community

WunderPhotos

Upload Photos

1,962,540 photos uploaded!

WunderBlog® & News

Nearby

Air Quality

  Air Quality AQ Index Pollutant
Not available.

Snow Depth

Station Depth Elevation

Earthquake Activity

City Distance Mag. Time & Date
Minimum magnitude displayed is 2.5.

Earthquake Activity

City Distance Mag. Time & Date
Minimum magnitude displayed is 2.5.

Coastal Water Temperatures

Place Temperature

Stations

Nearby Weather Stations

Station Location Temp. Windchill Dew Point Humidity Wind Precip. Elev Updated Type
                   

Watches & Warnings

There are currently no watches in effect.